createdAt,value
2022-09-20T00:02:45.197Z,11.91
2022-09-20T00:09:05.153Z,11.86
2022-09-20T00:15:28.185Z,11.77
2022-09-20T00:21:48.184Z,11.64
2022-09-20T00:28:11.157Z,11.57
2022-09-20T00:34:31.190Z,11.49
2022-09-20T00:40:54.162Z,11.44
2022-09-20T00:47:14.177Z,11.4
2022-09-20T00:53:37.173Z,11.38
2022-09-20T00:59:57.184Z,11.35
2022-09-20T01:06:20.155Z,11.32
2022-09-20T01:12:40.221Z,11.34
2022-09-20T01:19:03.158Z,11.37
2022-09-20T01:25:23.221Z,11.35
2022-09-20T01:31:46.260Z,11.32
2022-09-20T01:38:06.188Z,11.34
2022-09-20T01:44:29.159Z,11.39
2022-09-20T01:50:49.174Z,11.43
2022-09-20T01:57:12.204Z,11.41
2022-09-20T02:03:32.145Z,11.38
2022-09-20T02:09:55.184Z,11.38
2022-09-20T02:16:15.195Z,11.41
2022-09-20T02:22:38.176Z,11.42
2022-09-20T02:28:58.180Z,11.4
2022-09-20T02:35:21.216Z,11.39
2022-09-20T02:41:41.146Z,11.39
2022-09-20T02:48:04.226Z,11.42
2022-09-20T02:54:24.159Z,11.45
2022-09-20T03:00:47.213Z,11.47
2022-09-20T03:07:07.191Z,11.47
2022-09-20T03:13:30.160Z,11.51
2022-09-20T03:19:50.197Z,11.54
2022-09-20T03:26:13.180Z,11.55
2022-09-20T03:32:33.189Z,11.55
2022-09-20T03:49:20.147Z,11.52
2022-09-20T03:55:40.154Z,11.5
2022-09-20T04:02:03.251Z,11.48
2022-09-20T04:08:23.167Z,11.49
2022-09-20T04:14:46.168Z,11.51
2022-09-20T04:21:06.171Z,11.55
2022-09-20T04:27:29.169Z,11.58
2022-09-20T04:33:49.213Z,11.57
2022-09-20T04:40:12.211Z,11.56
2022-09-20T04:46:32.173Z,11.53
2022-09-20T04:52:55.205Z,11.48
2022-09-20T04:59:15.140Z,11.4
2022-09-20T05:05:38.229Z,11.39
2022-09-20T05:11:58.182Z,11.35
2022-09-20T05:18:21.161Z,11.3
2022-09-20T05:24:41.208Z,11.26
2022-09-20T05:31:04.227Z,11.28
2022-09-20T05:37:24.229Z,11.36
2022-09-20T05:43:47.188Z,11.4
2022-09-20T05:50:07.215Z,11.47
2022-09-20T05:56:30.191Z,11.56
2022-09-20T06:02:50.222Z,11.63
2022-09-20T06:09:13.186Z,11.72
2022-09-20T06:15:33.162Z,11.76
2022-09-20T06:21:56.210Z,11.85
2022-09-20T06:28:16.203Z,11.95
2022-09-20T06:34:39.198Z,12.02
2022-09-20T06:40:59.294Z,12.08
2022-09-20T06:47:22.205Z,12.16
2022-09-20T06:53:42.158Z,12.25
2022-09-20T07:00:05.201Z,12.35
2022-09-20T07:06:25.194Z,12.39
2022-09-20T07:12:48.208Z,12.43
2022-09-20T07:19:08.186Z,12.44
2022-09-20T07:25:31.187Z,12.45
2022-09-20T07:31:51.267Z,12.47
2022-09-20T07:38:14.222Z,12.57
2022-09-20T07:44:34.146Z,12.81
2022-09-20T07:50:57.175Z,13.03
2022-09-20T07:57:17.210Z,13.11
2022-09-20T08:03:40.170Z,13.25
2022-09-20T08:10:00.163Z,13.38
2022-09-20T08:16:23.241Z,13.49
2022-09-20T08:22:43.178Z,13.73
2022-09-20T08:29:06.336Z,13.85
2022-09-20T08:35:26.212Z,13.75
2022-09-20T08:41:49.178Z,13.68
2022-09-20T08:48:09.224Z,13.98
2022-09-20T08:54:32.679Z,14.27
2022-09-20T09:10:58.105Z,14.52
2022-09-20T09:17:18.143Z,14.64
2022-09-20T09:23:41.309Z,15.06
2022-09-20T09:30:01.185Z,15.54
2022-09-20T09:36:24.167Z,15.84
2022-09-20T09:42:44.250Z,15.89
2022-09-20T09:49:09.980Z,15.57
2022-09-20T09:55:27.153Z,15.34
2022-09-20T10:01:50.291Z,15.32
2022-09-20T10:08:10.264Z,15.75
2022-09-20T10:14:33.381Z,15.89
2022-09-20T10:20:53.264Z,15.56
2022-09-20T10:27:16.202Z,15.42
2022-09-20T10:33:36.183Z,15.36
2022-09-20T10:39:59.229Z,15.46
2022-09-20T10:46:32.173Z,15.52
2022-09-20T10:52:42.150Z,15.64
2022-09-20T10:59:02.253Z,15.79
2022-09-20T11:05:25.373Z,15.9
2022-09-20T11:11:45.180Z,15.93
2022-09-20T11:18:08.168Z,15.92
2022-09-20T11:24:28.270Z,16.3
2022-09-20T11:30:51.159Z,16.59
2022-09-20T11:37:11.194Z,17.12
2022-09-20T11:43:34.298Z,17.28
2022-09-20T11:49:54.180Z,16.96
2022-09-20T11:56:17.161Z,16.55
2022-09-20T12:02:38.492Z,16.33
2022-09-20T12:09:01.182Z,16.25
2022-09-20T12:15:21.147Z,16.1
2022-09-20T12:21:49.374Z,15.85
2022-09-20T12:28:04.152Z,15.93
2022-09-20T12:34:27.173Z,16.17
2022-09-20T12:40:47.233Z,16.25
2022-09-20T12:47:10.155Z,15.95
2022-09-20T12:53:30.166Z,15.73
2022-09-20T12:59:53.197Z,15.55
2022-09-20T13:06:13.216Z,15.47
2022-09-20T13:12:36.151Z,15.48
2022-09-20T13:18:56.248Z,15.4
2022-09-20T13:25:19.264Z,15.36
2022-09-20T13:31:39.177Z,15.22
2022-09-20T13:38:02.219Z,15.51
2022-09-20T13:44:22.167Z,15.96
2022-09-20T13:50:48.132Z,16.55
2022-09-20T13:57:05.190Z,17.1
2022-09-20T14:03:28.170Z,17.52
2022-09-20T14:09:48.189Z,17.29
2022-09-20T14:16:11.189Z,16.97
2022-09-20T14:22:31.207Z,16.78
2022-09-20T14:39:35.115Z,15.95
2022-09-20T14:45:55.162Z,15.84
2022-09-20T14:52:18.160Z,15.94
2022-09-20T14:58:38.187Z,16.19
2022-09-20T15:05:01.171Z,16.42
2022-09-20T15:11:21.174Z,16.49
2022-09-20T15:17:44.170Z,16.31
2022-09-20T15:24:04.145Z,16.13
2022-09-20T15:30:27.171Z,16.03
2022-09-20T15:36:47.233Z,15.92
2022-09-20T15:43:10.364Z,15.77
2022-09-20T15:49:30.336Z,15.82
2022-09-20T15:55:54.418Z,15.92
2022-09-20T16:02:14.174Z,15.88
2022-09-20T16:08:37.158Z,15.68
2022-09-20T16:14:57.221Z,15.48
2022-09-20T16:21:20.148Z,15.43
2022-09-20T16:27:40.196Z,15.48
2022-09-20T16:34:03.178Z,15.55
2022-09-20T16:40:23.242Z,15.5
2022-09-20T16:46:46.162Z,15.45
2022-09-20T16:53:06.164Z,15.37
2022-09-20T16:59:29.194Z,15.27
2022-09-20T17:05:49.173Z,15.19
2022-09-20T17:12:12.197Z,15.12
2022-09-20T17:18:32.150Z,15.09
2022-09-20T17:24:55.159Z,15.08
2022-09-20T17:31:15.304Z,15
2022-09-20T17:37:38.154Z,14.85
2022-09-20T17:43:58.153Z,14.72
2022-09-20T17:50:21.249Z,14.56
2022-09-20T17:56:41.157Z,14.39
2022-09-20T18:03:05.048Z,14.34
2022-09-20T18:09:24.176Z,14.25
2022-09-20T18:15:47.180Z,14.11
2022-09-20T18:22:07.139Z,13.97
2022-09-20T18:28:30.168Z,13.92
2022-09-20T18:34:50.183Z,13.86
2022-09-20T18:41:13.157Z,13.78
2022-09-20T18:47:33.324Z,13.65
2022-09-20T18:53:56.144Z,13.46
2022-09-20T19:00:16.313Z,13.29
2022-09-20T19:06:39.224Z,13.07
2022-09-20T19:12:59.168Z,12.88
2022-09-20T19:19:22.189Z,12.76
2022-09-20T19:25:42.181Z,12.61
2022-09-20T19:32:05.195Z,12.44
2022-09-20T19:38:25.216Z,12.22
2022-09-20T19:44:48.160Z,12.13
2022-09-20T20:07:35.808Z,11.94
2022-09-20T20:13:55.157Z,11.89
2022-09-20T20:20:18.186Z,11.82
2022-09-20T20:26:38.201Z,11.72
2022-09-20T20:33:01.192Z,11.65
2022-09-20T20:39:21.167Z,11.6
2022-09-20T20:45:44.159Z,11.58
2022-09-20T20:52:04.216Z,11.55
2022-09-20T20:58:27.173Z,11.53
2022-09-20T21:04:47.172Z,11.49
2022-09-20T21:11:10.157Z,11.44
2022-09-20T21:17:33.948Z,11.39
2022-09-20T21:23:53.210Z,11.35
2022-09-20T21:30:13.152Z,11.27
2022-09-20T21:36:36.156Z,11.15
2022-09-20T21:42:56.211Z,11.03
2022-09-20T21:49:19.137Z,10.98
2022-09-20T21:55:39.176Z,10.93
2022-09-20T22:19:57.166Z,10.6
2022-09-20T22:26:17.160Z,10.48
2022-09-20T22:32:40.189Z,10.46
2022-09-20T22:39:00.258Z,10.44
2022-09-20T22:45:23.170Z,10.38
2022-09-20T22:51:43.201Z,10.3
2022-09-20T22:58:06.185Z,10.26
2022-09-20T23:04:26.160Z,10.22
2022-09-20T23:10:49.153Z,10.17
2022-09-20T23:17:09.247Z,10.1
2022-09-20T23:23:32.178Z,9.96
2022-09-20T23:29:52.172Z,9.85
2022-09-20T23:36:15.219Z,9.8
2022-09-20T23:42:35.159Z,9.78
2022-09-20T23:48:58.218Z,9.77
2022-09-20T23:55:18.178Z,9.69
